Time;durP1;ratioP1;P1;durP2;ratioP2;P2;SDS_P1;SDS_P2;PMS_P1;PMS_P2;Temp;Humidity;BMP_temperature;BMP_pressure;BME280_temperature;BME280_humidity;BME280_pressure;Samples;Min_cycle;Max_cycle;Signal;HPM_P1;HPM_P2
2022/07/22 00:00:09;;;;;;;5.80;4.47;;;22.50;99.90;;;;;;5006391;28;20528;-84
2022/07/22 00:02:36;;;;;;;5.70;4.10;;;22.40;99.90;;;;;;5004808;28;20058;-84
2022/07/22 00:05:03;;;;;;;6.53;4.50;;;22.40;99.90;;;;;;5005821;28;20050;-83
2022/07/22 00:07:30;;;;;;;4.95;3.67;;;22.30;99.90;;;;;;5006613;28;20092;-84
2022/07/22 00:09:57;;;;;;;9.60;3.67;;;22.30;99.90;;;;;;5005305;28;20047;-84
2022/07/22 00:12:24;;;;;;;8.77;4.28;;;22.20;99.90;;;;;;5006230;28;20058;-84
2022/07/22 00:14:51;;;;;;;5.32;3.60;;;22.30;99.90;;;;;;5002760;28;20074;-84
2022/07/22 00:17:18;;;;;;;4.88;3.92;;;22.20;99.90;;;;;;5012978;28;20056;-83
2022/07/22 00:19:44;;;;;;;6.78;4.03;;;22.20;99.90;;;;;;5005856;28;20145;-84
2022/07/22 00:22:11;;;;;;;7.28;3.80;;;22.20;99.90;;;;;;5003804;28;20077;-84
2022/07/22 00:24:38;;;;;;;5.40;3.95;;;22.00;99.90;;;;;;5008766;28;20054;-83
2022/07/22 00:27:05;;;;;;;9.25;3.67;;;21.90;99.90;;;;;;5008008;28;20136;-83
2022/07/22 00:29:31;;;;;;;4.45;3.65;;;21.90;99.90;;;;;;5004787;28;20093;-83
2022/07/22 00:31:58;;;;;;;6.90;3.92;;;21.90;99.90;;;;;;5008751;28;20108;-84
2022/07/22 00:34:25;;;;;;;4.70;3.67;;;21.90;99.90;;;;;;5010324;28;20078;-84
2022/07/22 00:36:52;;;;;;;4.47;3.58;;;21.80;99.90;;;;;;5012048;28;20057;-83
2022/07/22 00:39:18;;;;;;;6.25;4.18;;;21.80;99.90;;;;;;5019078;28;20042;-83
2022/07/22 00:41:45;;;;;;;4.88;3.80;;;21.80;99.90;;;;;;5012057;28;20085;-84
2022/07/22 00:44:12;;;;;;;4.43;3.50;;;21.80;99.90;;;;;;5011713;28;20470;-84
2022/07/22 00:46:39;;;;;;;5.95;3.72;;;21.80;99.90;;;;;;5008695;28;20500;-84
2022/07/22 00:49:08;;;;;;;4.97;3.90;;;21.80;99.90;;;;;;5008393;28;20053;-84
2022/07/22 00:51:37;;;;;;;4.78;3.45;;;21.70;99.90;;;;;;5009811;28;20082;-84
2022/07/22 00:54:04;;;;;;;7.35;4.07;;;21.70;99.90;;;;;;5007160;28;20097;-84
2022/07/22 00:56:31;;;;;;;6.13;3.95;;;21.70;99.90;;;;;;5010590;28;20104;-84
2022/07/22 00:59:02;;;;;;;5.20;3.88;;;21.70;99.90;;;;;;5008091;28;20088;-83
2022/07/22 01:01:29;;;;;;;5.72;3.50;;;21.70;99.90;;;;;;5008009;28;20081;-84
2022/07/22 01:03:56;;;;;;;4.50;3.67;;;21.50;99.90;;;;;;5009788;28;20133;-84
2022/07/22 01:06:29;;;;;;;7.65;3.83;;;21.50;99.90;;;;;;5006937;28;20057;-84
2022/07/22 01:08:57;;;;;;;4.47;3.90;;;21.40;99.90;;;;;;5008907;28;20050;-84
2022/07/22 01:11:25;;;;;;;4.20;3.55;;;21.40;99.90;;;;;;5010203;28;20057;-84
2022/07/22 01:13:53;;;;;;;4.45;4.05;;;21.40;99.90;;;;;;5007936;28;20475;-84
2022/07/22 01:16:20;;;;;;;6.00;3.78;;;21.30;99.90;;;;;;5010954;28;20056;-84
2022/07/22 01:18:47;;;;;;;6.65;3.88;;;21.30;99.90;;;;;;5008444;28;20054;-83
2022/07/22 01:21:15;;;;;;;7.18;4.10;;;21.20;99.90;;;;;;5009634;28;20133;-83
2022/07/22 01:23:43;;;;;;;4.75;3.72;;;21.10;99.90;;;;;;5010229;28;20078;-84
2022/07/22 01:26:10;;;;;;;5.85;3.70;;;21.20;99.90;;;;;;5008055;28;20141;-83
2022/07/22 01:28:37;;;;;;;5.10;3.70;;;21.20;99.90;;;;;;5011277;28;20052;-83
2022/07/22 01:31:04;;;;;;;6.50;3.67;;;21.10;99.90;;;;;;5008571;28;20078;-84
2022/07/22 01:33:32;;;;;;;4.88;3.33;;;21.10;99.90;;;;;;5014678;28;20053;-84
2022/07/22 01:35:59;;;;;;;4.82;4.22;;;21.10;99.90;;;;;;5014721;28;20551;-82
2022/07/22 01:38:26;;;;;;;3.78;3.45;;;21.00;99.90;;;;;;5008774;28;20089;-83
2022/07/22 01:40:53;;;;;;;5.68;4.05;;;21.00;99.90;;;;;;5010241;28;20084;-85
2022/07/22 01:43:20;;;;;;;4.53;3.78;;;21.00;99.90;;;;;;5008549;28;20054;-84
2022/07/22 01:45:50;;;;;;;5.10;4.32;;;21.00;99.90;;;;;;5010575;28;20523;-84
2022/07/22 01:48:17;;;;;;;4.90;3.97;;;20.90;99.90;;;;;;5010445;28;20050;-83
2022/07/22 01:50:44;;;;;;;6.22;3.92;;;21.00;99.90;;;;;;5015109;28;20055;-84
2022/07/22 01:53:12;;;;;;;6.78;4.30;;;21.00;99.90;;;;;;5011289;28;20085;-83
2022/07/22 01:55:41;;;;;;;13.90;4.13;;;20.80;99.90;;;;;;5007590;28;20054;-84
2022/07/22 01:58:08;;;;;;;6.43;4.25;;;20.80;99.90;;;;;;5010087;28;20054;-83
2022/07/22 02:00:38;;;;;;;8.05;4.18;;;20.80;99.90;;;;;;5008641;28;20050;-84
2022/07/22 02:03:06;;;;;;;7.65;4.05;;;20.70;99.90;;;;;;5014108;28;20062;-83
2022/07/22 02:05:34;;;;;;;9.32;4.63;;;20.70;99.90;;;;;;5007204;28;20050;-83
2022/07/22 02:08:05;;;;;;;4.70;3.80;;;20.70;99.90;;;;;;5014516;28;20054;-83
2022/07/22 02:10:32;;;;;;;4.53;3.65;;;20.70;99.90;;;;;;5004971;28;20043;-83
2022/07/22 02:13:00;;;;;;;5.78;3.88;;;20.60;99.90;;;;;;5010865;28;20054;-83
2022/07/22 02:15:27;;;;;;;5.57;4.40;;;20.60;99.90;;;;;;5006079;28;20050;-83
2022/07/22 02:17:55;;;;;;;5.65;3.85;;;20.70;99.90;;;;;;5004854;28;20055;-84
2022/07/22 02:20:23;;;;;;;4.75;3.80;;;20.70;99.90;;;;;;5016018;28;20052;-84
2022/07/22 02:22:50;;;;;;;6.38;4.40;;;20.60;99.90;;;;;;5008257;28;20046;-83
2022/07/22 02:25:18;;;;;;;4.93;3.65;;;20.60;99.90;;;;;;5014203;28;20389;-84
2022/07/22 02:27:47;;;;;;;5.53;4.03;;;20.60;99.90;;;;;;5013065;28;20125;-85
2022/07/22 02:30:17;;;;;;;4.93;4.05;;;20.60;99.90;;;;;;5023200;28;20050;-84
2022/07/22 02:32:44;;;;;;;5.85;3.83;;;20.50;99.90;;;;;;5010106;28;20047;-83
2022/07/22 02:35:16;;;;;;;9.73;3.97;;;20.50;99.90;;;;;;5014476;28;20066;-83
2022/07/22 02:37:46;;;;;;;5.47;4.32;;;20.60;99.90;;;;;;5009986;28;20050;-83
2022/07/22 02:40:14;;;;;;;6.97;3.90;;;20.60;99.90;;;;;;5016062;28;20054;-83
2022/07/22 02:42:42;;;;;;;4.50;3.70;;;20.50;99.90;;;;;;5015979;28;20050;-84
2022/07/22 02:45:09;;;;;;;5.32;4.35;;;20.50;99.90;;;;;;5035904;28;20121;-83
2022/07/22 02:47:49;;;;;;;5.03;3.85;;;20.50;99.90;;;;;;5029845;28;20046;-83
2022/07/22 02:50:17;;;;;;;4.15;3.70;;;20.40;99.90;;;;;;5014007;28;20054;-83
2022/07/22 02:52:48;;;;;;;5.03;3.90;;;20.30;99.90;;;;;;5010478;28;20054;-83
2022/07/22 02:55:16;;;;;;;6.40;4.35;;;20.30;99.90;;;;;;5010981;28;20050;-84
2022/07/22 02:57:46;;;;;;;7.47;4.57;;;20.30;99.90;;;;;;5015945;28;20075;-83
2022/07/22 03:00:14;;;;;;;5.47;3.83;;;20.30;99.90;;;;;;5008022;28;20066;-84
2022/07/22 03:02:42;;;;;;;6.20;4.05;;;20.20;99.90;;;;;;5017467;28;20133;-84
2022/07/22 03:05:09;;;;;;;6.07;4.13;;;20.20;99.90;;;;;;5016820;28;20439;-83
2022/07/22 03:07:40;;;;;;;6.22;4.10;;;20.20;99.90;;;;;;5022861;28;20105;-83
2022/07/22 03:10:08;;;;;;;;;;;20.10;99.90;;;;;;5015184;28;20137;-83
2022/07/22 03:12:36;;;;;;;8.00;4.03;;;20.20;99.90;;;;;;5005443;28;20412;-84
2022/07/22 03:15:04;;;;;;;4.93;3.90;;;20.10;99.90;;;;;;5016122;28;20057;-84
2022/07/22 03:17:37;;;;;;;4.82;4.10;;;20.00;99.90;;;;;;5005280;28;20109;-84
2022/07/22 03:20:11;;;;;;;5.40;4.25;;;20.10;99.90;;;;;;5013975;28;20142;-83
2022/07/22 03:22:38;;;;;;;6.78;4.25;;;20.00;99.90;;;;;;5015891;28;20056;-83
2022/07/22 03:25:05;;;;;;;6.40;4.60;;;19.90;99.90;;;;;;5009104;28;20082;-83
2022/07/22 03:27:33;;;;;;;6.80;4.15;;;19.90;99.90;;;;;;5014744;28;20054;-83
2022/07/22 03:30:03;;;;;;;4.95;4.38;;;20.00;99.90;;;;;;5008314;28;20056;-84
2022/07/22 03:32:30;;;;;;;5.75;4.03;;;19.90;99.90;;;;;;5005879;28;20046;-84
2022/07/22 03:35:00;;;;;;;5.20;4.22;;;19.90;99.90;;;;;;5005627;28;20054;-84
2022/07/22 03:37:33;;;;;;;4.57;4.18;;;19.80;99.90;;;;;;5010799;28;20499;-83
2022/07/22 03:40:02;;;;;;;8.10;3.70;;;19.80;99.90;;;;;;5014406;28;20137;-83
2022/07/22 03:42:35;;;;;;;5.85;4.15;;;19.80;99.90;;;;;;5009624;28;20124;-83
2022/07/22 03:45:02;;;;;;;5.55;3.90;;;19.90;99.90;;;;;;5008277;28;20070;-83
2022/07/22 03:47:30;;;;;;;8.10;4.32;;;19.90;99.90;;;;;;5022544;28;20071;-83
2022/07/22 03:50:01;;;;;;;7.68;4.32;;;19.90;99.90;;;;;;5021833;28;20057;-83
2022/07/22 03:52:30;;;;;;;4.80;4.20;;;19.90;99.90;;;;;;5027583;28;20493;-83
2022/07/22 03:54:58;;;;;;;6.03;4.40;;;19.80;99.90;;;;;;5018739;28;20054;-83
2022/07/22 03:57:27;;;;;;;4.90;3.92;;;19.70;99.90;;;;;;5007417;28;20054;-83
2022/07/22 03:59:54;;;;;;;6.03;4.22;;;19.80;99.90;;;;;;5004019;28;20086;-83
2022/07/22 04:02:22;;;;;;;6.07;4.75;;;19.80;99.90;;;;;;5012087;28;20463;-84
2022/07/22 04:04:49;;;;;;;6.57;4.47;;;19.70;99.90;;;;;;5007700;28;20419;-84
2022/07/22 04:07:18;;;;;;;3.85;3.45;;;19.70;99.90;;;;;;5006477;28;20128;-84
2022/07/22 04:09:45;;;;;;;4.72;4.25;;;19.60;99.90;;;;;;5005940;28;20439;-83
2022/07/22 04:12:12;;;;;;;5.53;4.13;;;19.60;99.90;;;;;;5003318;28;20042;-84
2022/07/22 04:14:39;;;;;;;7.20;4.38;;;19.60;99.90;;;;;;5004716;28;20061;-85
2022/07/22 04:17:05;;;;;;;6.88;3.80;;;19.80;99.90;;;;;;5012307;28;20054;-84
2022/07/22 04:19:37;;;;;;;8.20;4.78;;;19.70;99.90;;;;;;5019859;28;20076;-84
2022/07/22 04:22:04;;;;;;;6.03;4.30;;;19.80;99.90;;;;;;5005312;28;20720;-84
2022/07/22 04:24:31;;;;;;;5.85;4.20;;;19.80;99.90;;;;;;5002920;28;20051;-84
2022/07/22 04:26:57;;;;;;;5.40;4.60;;;19.80;99.90;;;;;;5005966;28;20136;-84
2022/07/22 04:29:24;;;;;;;5.20;4.53;;;19.80;99.90;;;;;;5017545;28;20075;-84
2022/07/22 04:31:51;;;;;;;5.18;4.20;;;19.80;99.90;;;;;;5003484;28;20073;-85
2022/07/22 04:34:21;;;;;;;5.45;4.07;;;19.70;99.90;;;;;;5004962;28;20047;-84
2022/07/22 04:36:48;;;;;;;5.57;4.45;;;19.70;99.90;;;;;;5004432;28;20238;-84
2022/07/22 04:39:14;;;;;;;7.45;4.43;;;19.60;99.90;;;;;;5008014;28;20132;-83
2022/07/22 04:41:41;;;;;;;5.35;4.43;;;19.60;99.90;;;;;;5006348;28;20085;-84
2022/07/22 04:44:08;;;;;;;5.32;4.53;;;19.60;99.90;;;;;;5004172;28;20214;-84
2022/07/22 04:46:35;;;;;;;4.95;4.20;;;19.60;99.90;;;;;;5011434;28;20042;-84
2022/07/22 04:49:02;;;;;;;8.13;5.50;;;19.60;99.90;;;;;;5006117;28;20038;-84
2022/07/22 04:51:28;;;;;;;8.27;4.68;;;19.60;99.90;;;;;;5009387;28;20041;-84
2022/07/22 04:53:55;;;;;;;6.20;4.30;;;19.60;99.90;;;;;;5005673;28;20113;-84
2022/07/22 04:56:22;;;;;;;6.50;4.57;;;19.70;99.90;;;;;;5015191;28;20042;-84
2022/07/22 04:58:51;;;;;;;8.70;4.63;;;19.80;99.90;;;;;;5034792;28;20046;-84
2022/07/22 05:01:17;;;;;;;7.90;5.93;;;19.80;99.90;;;;;;5018967;28;20058;-85
2022/07/22 05:03:44;;;;;;;8.07;5.47;;;19.90;99.90;;;;;;5019217;28;20054;-83
2022/07/22 05:06:11;;;;;;;5.32;4.43;;;20.00;99.90;;;;;;5017951;28;20070;-81
2022/07/22 05:08:39;;;;;;;5.75;4.63;;;20.10;99.90;;;;;;5027239;28;20057;-83
2022/07/22 05:11:06;;;;;;;5.45;4.40;;;20.30;99.90;;;;;;5027924;28;20050;-84
2022/07/22 05:13:33;;;;;;;5.40;3.70;;;20.40;99.90;;;;;;5024873;28;20073;-84
2022/07/22 05:16:04;;;;;;;5.63;4.30;;;20.50;99.90;;;;;;5041051;28;20040;-83
2022/07/22 05:18:31;;;;;;;4.78;3.90;;;20.60;99.90;;;;;;5025136;28;20484;-84
2022/07/22 05:21:00;;;;;;;6.03;4.43;;;20.70;99.90;;;;;;5022923;28;20054;-84
2022/07/22 05:23:29;;;;;;;4.97;4.50;;;20.80;99.90;;;;;;5030688;28;20057;-84
2022/07/22 05:25:56;;;;;;;7.50;4.45;;;20.80;99.90;;;;;;5025028;28;20050;-85
2022/07/22 05:28:26;;;;;;;7.07;4.68;;;21.10;99.90;;;;;;5029861;28;20058;-81
2022/07/22 05:30:53;;;;;;;8.95;5.18;;;21.00;99.90;;;;;;5021707;28;20049;-85
2022/07/22 05:33:20;;;;;;;10.88;6.22;;;21.20;99.90;;;;;;5010313;28;20129;-85
2022/07/22 05:35:46;;;;;;;9.10;6.18;;;21.30;99.90;;;;;;5016020;28;20043;-85
2022/07/22 05:38:13;;;;;;;9.55;5.70;;;21.20;99.90;;;;;;5009429;28;20092;-84
2022/07/22 05:40:40;;;;;;;15.20;6.60;;;21.40;99.90;;;;;;5007181;28;20144;-86
2022/07/22 05:43:07;;;;;;;11.32;8.18;;;21.40;99.90;;;;;;5001854;28;20069;-85
2022/07/22 05:45:33;;;;;;;9.38;7.70;;;21.50;99.90;;;;;;5011083;28;20054;-84
2022/07/22 05:48:00;;;;;;;8.43;7.20;;;21.50;99.90;;;;;;5009865;28;20489;-85
2022/07/22 05:50:28;;;;;;;12.32;7.78;;;21.50;99.90;;;;;;5011872;28;20042;-85
2022/07/22 05:52:54;;;;;;;10.55;7.32;;;21.50;99.90;;;;;;5015138;28;20081;-84
2022/07/22 05:55:21;;;;;;;13.32;8.60;;;21.50;99.90;;;;;;5078172;22;20461;-81
2022/07/22 05:57:48;;;;;;;13.45;7.88;;;21.50;99.90;;;;;;5066144;28;20105;-82
2022/07/22 06:00:15;;;;;;;12.60;9.18;;;21.40;99.90;;;;;;5068706;28;20094;-81
2022/07/22 06:02:42;;;;;;;11.98;9.40;;;21.50;99.90;;;;;;5086561;28;20067;-85
2022/07/22 06:05:09;;;;;;;14.95;9.15;;;21.40;99.90;;;;;;5075486;28;20063;-86
2022/07/22 06:07:39;;;;;;;10.48;8.25;;;21.50;99.90;;;;;;5078643;28;20036;-85
2022/07/22 06:10:06;;;;;;;10.80;8.70;;;21.40;99.90;;;;;;5075584;28;20029;-85
2022/07/22 06:12:33;;;;;;;12.27;9.15;;;21.50;99.90;;;;;;5071565;28;20068;-86
2022/07/22 06:15:00;;;;;;;16.15;9.13;;;21.50;99.90;;;;;;5070206;28;20030;-85
2022/07/22 06:17:26;;;;;;;9.93;8.43;;;21.40;99.90;;;;;;5069910;28;20042;-86
2022/07/22 06:19:53;;;;;;;11.75;8.15;;;21.40;99.90;;;;;;5068786;28;20060;-86
2022/07/22 06:22:20;;;;;;;11.90;9.13;;;21.50;99.90;;;;;;5067415;28;20068;-87
2022/07/22 06:24:47;;;;;;;9.57;8.55;;;21.50;99.90;;;;;;5070377;28;20071;-83
2022/07/22 06:27:13;;;;;;;10.82;8.05;;;21.50;99.90;;;;;;5063745;28;20081;-81
2022/07/22 06:29:40;;;;;;;15.25;9.40;;;21.60;99.90;;;;;;5063047;28;20080;-83
2022/07/22 06:32:08;;;;;;;11.80;9.23;;;21.60;99.90;;;;;;5061792;28;20041;-84
2022/07/22 06:34:35;;;;;;;11.60;8.95;;;21.70;99.90;;;;;;5060903;28;20184;-85
2022/07/22 06:37:02;;;;;;;9.00;8.00;;;21.70;99.90;;;;;;5063796;28;20049;-84
2022/07/22 06:39:29;;;;;;;11.10;7.63;;;21.70;99.90;;;;;;5064494;28;20049;-85
2022/07/22 06:41:56;;;;;;;13.18;8.25;;;21.70;99.90;;;;;;5061815;28;20049;-83
2022/07/22 06:44:23;;;;;;;11.48;8.55;;;21.80;99.90;;;;;;5056691;28;20076;-86
2022/07/22 06:46:49;;;;;;;14.82;9.20;;;21.80;99.90;;;;;;5061794;28;20049;-85
2022/07/22 06:49:18;;;;;;;13.77;8.25;;;21.80;99.90;;;;;;5059065;28;20072;-84
2022/07/22 06:51:45;;;;;;;12.75;8.63;;;21.80;99.90;;;;;;5063432;28;20060;-86
2022/07/22 06:54:12;;;;;;;11.10;7.97;;;21.80;99.90;;;;;;5055129;28;20115;-83
2022/07/22 06:56:39;;;;;;;10.02;8.35;;;22.10;99.90;;;;;;5065085;28;20045;-84
2022/07/22 06:59:05;;;;;;;15.82;8.13;;;21.90;99.90;;;;;;5060535;28;20045;-84
2022/07/22 07:01:32;;;;;;;12.68;8.27;;;21.90;99.90;;;;;;5062710;28;20045;-84
2022/07/22 07:03:59;;;;;;;9.77;7.22;;;21.80;99.90;;;;;;5060398;28;20074;-84
2022/07/22 07:06:26;;;;;;;11.02;7.88;;;21.70;99.90;;;;;;5052032;28;20101;-84
2022/07/22 07:08:53;;;;;;;11.13;8.43;;;21.80;99.90;;;;;;5050670;28;20052;-82
2022/07/22 07:11:20;;;;;;;13.70;8.68;;;21.80;99.90;;;;;;5051113;28;20052;-85
2022/07/22 07:13:47;;;;;;;10.10;9.10;;;21.80;99.90;;;;;;5053341;28;20065;-84
2022/07/22 07:16:14;;;;;;;12.10;9.30;;;21.70;99.90;;;;;;5066302;28;20045;-84
2022/07/22 07:18:41;;;;;;;13.20;8.23;;;21.70;99.90;;;;;;5062589;28;20063;-85
2022/07/22 07:21:07;;;;;;;11.73;8.77;;;21.80;99.90;;;;;;5059562;28;20053;-85
2022/07/22 07:23:34;;;;;;;13.55;9.98;;;21.80;99.90;;;;;;5061459;28;20072;-83
2022/07/22 07:26:01;;;;;;;11.82;8.30;;;21.80;99.90;;;;;;5060479;28;20050;-84
2022/07/22 07:28:28;;;;;;;11.15;9.07;;;21.80;99.90;;;;;;5059537;28;20048;-85
2022/07/22 07:30:56;;;;;;;12.30;9.18;;;21.90;99.90;;;;;;5062068;28;20049;-83
2022/07/22 07:33:23;;;;;;;10.32;7.68;;;21.90;99.90;;;;;;5069382;28;20098;-85
2022/07/22 07:35:50;;;;;;;12.77;9.23;;;21.90;99.90;;;;;;5062285;28;20075;-84
2022/07/22 07:38:17;;;;;;;14.32;9.20;;;22.00;99.90;;;;;;5060074;28;20503;-85
2022/07/22 07:40:44;;;;;;;16.60;9.60;;;21.90;99.90;;;;;;5060400;28;20075;-85
2022/07/22 07:43:10;;;;;;;12.68;9.35;;;21.90;99.90;;;;;;5061190;28;20060;-85
2022/07/22 07:45:37;;;;;;;15.85;9.40;;;22.00;99.90;;;;;;5058576;28;20076;-84
2022/07/22 07:48:05;;;;;;;9.88;8.65;;;22.10;99.90;;;;;;5049735;28;20056;-84
2022/07/22 07:50:32;;;;;;;9.85;8.80;;;22.10;99.90;;;;;;5049971;28;20517;-84
2022/07/22 07:52:58;;;;;;;11.18;9.45;;;22.10;99.90;;;;;;5057599;28;20079;-86
2022/07/22 07:55:26;;;;;;;10.40;8.65;;;22.10;99.90;;;;;;5050691;28;20058;-85
2022/07/22 07:57:53;;;;;;;11.75;9.07;;;22.20;99.90;;;;;;5054092;28;20613;-85
2022/07/22 08:00:23;;;;;;;10.07;8.48;;;22.20;99.90;;;;;;5062793;28;20056;-84
2022/07/22 08:02:50;;;;;;;12.02;8.95;;;22.30;99.90;;;;;;5062830;28;20139;-85
2022/07/22 08:05:19;;;;;;;13.80;9.45;;;22.20;99.90;;;;;;5060236;28;20051;-83
2022/07/22 08:07:47;;;;;;;9.73;8.73;;;22.30;99.90;;;;;;5060291;28;20094;-84
2022/07/22 08:10:16;;;;;;;10.40;8.73;;;22.30;99.90;;;;;;5057593;28;20045;-85
2022/07/22 08:13:03;;;;;;;10.05;8.85;;;22.30;99.90;;;;;;5061459;28;20040;-84
2022/07/22 08:15:30;;;;;;;10.88;7.85;;;22.30;99.90;;;;;;5058349;28;20056;-85
2022/07/22 08:17:57;;;;;;;9.85;8.32;;;22.40;99.90;;;;;;5057936;28;20056;-85
2022/07/22 08:20:26;;;;;;;14.27;8.38;;;22.50;99.90;;;;;;5059599;28;20041;-84
2022/07/22 08:22:53;;;;;;;12.38;8.50;;;22.50;99.90;;;;;;5060002;28;20049;-85
2022/07/22 08:25:21;;;;;;;10.32;7.68;;;22.60;99.90;;;;;;5058380;28;20068;-84
2022/07/22 08:27:48;;;;;;;10.95;8.50;;;22.60;99.90;;;;;;5059608;28;20075;-83
2022/07/22 08:30:15;;;;;;;11.73;7.82;;;22.70;99.90;;;;;;5056800;28;20052;-84
2022/07/22 08:32:42;;;;;;;10.90;7.22;;;22.80;99.90;;;;;;5058983;28;20070;-83
2022/07/22 08:35:09;;;;;;;12.05;7.80;;;22.80;99.90;;;;;;5060216;28;20072;-83
2022/07/22 08:37:37;;;;;;;12.73;7.93;;;22.80;99.90;;;;;;5058425;28;20097;-85
2022/07/22 08:40:05;;;;;;;11.15;7.97;;;23.00;99.90;;;;;;5060319;28;20053;-83
2022/07/22 08:42:36;;;;;;;9.18;7.32;;;22.90;99.90;;;;;;5061679;28;20045;-82
2022/07/22 08:45:03;;;;;;;8.73;7.05;;;23.00;99.90;;;;;;5058928;28;20045;-82
2022/07/22 08:47:33;;;;;;;11.18;7.20;;;23.00;99.90;;;;;;5058109;28;20072;-80
2022/07/22 08:50:09;;;;;;;9.80;6.40;;;23.10;99.90;;;;;;5057655;28;20084;-83
2022/07/22 08:52:36;;;;;;;11.88;7.57;;;23.20;99.90;;;;;;5060544;28;20471;-82
2022/07/22 08:55:07;;;;;;;8.85;6.53;;;23.20;99.90;;;;;;5063593;28;20045;-84
2022/07/22 08:57:36;;;;;;;10.40;6.78;;;23.20;99.90;;;;;;5060809;28;20057;-82
2022/07/22 09:00:10;;;;;;;10.02;7.70;;;23.30;99.90;;;;;;5064056;28;20029;-84
2022/07/22 09:02:39;;;;;;;10.88;7.10;;;23.30;99.90;;;;;;5063574;28;20054;-82
2022/07/22 09:05:09;;;;;;;9.55;6.18;;;23.40;99.90;;;;;;5061705;28;20084;-82
2022/07/22 09:07:58;;;;;;;10.20;6.43;;;23.40;99.90;;;;;;5064402;28;20051;-82
2022/07/22 09:10:32;;;;;;;9.15;6.32;;;23.40;99.90;;;;;;5061147;28;20050;-82
2022/07/22 09:13:01;;;;;;;8.63;7.40;;;23.50;99.90;;;;;;5062398;28;20068;-82
2022/07/22 09:15:31;;;;;;;7.90;7.05;;;23.60;99.90;;;;;;5051941;28;20053;-83
2022/07/22 09:17:59;;;;;;;8.48;6.90;;;23.70;99.90;;;;;;5053069;28;20058;-84
2022/07/22 09:20:32;;;;;;;11.48;7.22;;;23.60;99.90;;;;;;5053084;28;20050;-83
2022/07/22 09:22:59;;;;;;;9.15;7.18;;;23.70;99.90;;;;;;5053073;28;20046;-83
2022/07/22 09:25:36;;;;;;;10.20;8.00;;;23.70;99.90;;;;;;5052918;28;20060;-82
2022/07/22 09:28:06;;;;;;;10.35;7.35;;;23.80;99.90;;;;;;5052632;28;20514;-82
2022/07/22 09:30:44;;;;;;;11.77;6.63;;;23.80;99.90;;;;;;5052643;28;20050;-81
2022/07/22 09:33:12;;;;;;;10.38;7.25;;;23.90;99.90;;;;;;5053172;28;20056;-84
2022/07/22 09:35:42;;;;;;;7.97;6.72;;;23.90;99.90;;;;;;5054985;28;20442;-84
2022/07/22 09:38:17;;;;;;;10.27;7.72;;;24.10;99.90;;;;;;5055859;28;20117;-83
2022/07/22 09:40:48;;;;;;;9.18;7.60;;;24.10;99.90;;;;;;5055730;28;20057;-83
2022/07/22 09:43:19;;;;;;;11.07;8.00;;;24.20;99.90;;;;;;5055802;28;20077;-81
2022/07/22 09:45:57;;;;;;;14.55;6.88;;;24.20;99.90;;;;;;5052426;28;20050;-80
2022/07/22 09:48:25;;;;;;;8.35;6.55;;;24.20;99.90;;;;;;5055429;28;20049;-81
2022/07/22 09:50:53;;;;;;;11.57;7.55;;;24.20;99.90;;;;;;5055724;28;20046;-83
2022/07/22 09:53:22;;;;;;;8.63;6.95;;;24.30;99.90;;;;;;5056548;28;20080;-83
2022/07/22 09:55:49;;;;;;;12.00;7.28;;;24.30;99.90;;;;;;5053790;28;20042;-84
2022/07/22 09:58:16;;;;;;;12.50;7.90;;;24.30;99.90;;;;;;5058812;28;20052;-83
2022/07/22 10:00:43;;;;;;;11.07;7.38;;;24.40;99.90;;;;;;5068363;28;20052;-81
2022/07/22 10:03:21;;;;;;;11.40;7.70;;;24.50;99.90;;;;;;5072973;28;20049;-83
2022/07/22 10:05:48;;;;;;;7.72;6.60;;;24.50;99.90;;;;;;5072595;28;20108;-84
2022/07/22 10:08:15;;;;;;;7.32;6.50;;;24.70;99.90;;;;;;5072332;28;20048;-84
2022/07/22 10:10:42;;;;;;;11.30;8.07;;;24.70;99.90;;;;;;5072366;28;20065;-83
2022/07/22 10:13:10;;;;;;;8.68;6.65;;;24.70;99.90;;;;;;5072857;28;20041;-83
2022/07/22 10:15:38;;;;;;;8.68;6.85;;;24.80;99.90;;;;;;5071917;28;20045;-83
2022/07/22 10:18:14;;;;;;;7.35;6.65;;;24.80;99.90;;;;;;5072335;28;20053;-84
2022/07/22 10:20:41;;;;;;;8.18;6.07;;;24.90;99.90;;;;;;5071377;28;20045;-82
2022/07/22 10:23:10;;;;;;;8.80;6.75;;;24.90;99.90;;;;;;5072024;28;20075;-84
2022/07/22 10:25:52;;;;;;;10.60;5.78;;;25.00;99.90;;;;;;5072522;28;20079;-85
2022/07/22 10:28:37;;;;;;;7.63;6.18;;;25.00;99.90;;;;;;5071276;28;20052;-82
2022/07/22 10:31:23;;;;;;;6.90;5.90;;;25.10;99.90;;;;;;5071286;28;20045;-84
2022/07/22 10:33:56;;;;;;;6.55;5.63;;;25.20;99.90;;;;;;5072290;28;20073;-83
2022/07/22 10:36:35;;;;;;;9.57;6.15;;;25.30;99.90;;;;;;5072022;28;20077;-82
2022/07/22 10:39:13;;;;;;;7.20;5.82;;;25.30;99.90;;;;;;5073814;28;20049;-84
2022/07/22 10:41:43;;;;;;;7.75;6.15;;;25.40;99.90;;;;;;5070571;28;20052;-84
2022/07/22 10:44:47;;;;;;;9.60;6.38;;;25.50;99.90;;;;;;5072139;28;20503;-85
2022/07/22 10:47:55;;;;;;;10.00;6.13;;;25.50;99.90;;;;;;5071972;28;20067;-84
2022/07/22 10:50:43;;;;;;;7.20;5.97;;;25.50;99.90;;;;;;5072349;28;20056;-84
2022/07/22 10:53:17;;;;;;;8.00;5.63;;;25.60;99.90;;;;;;5072469;28;20049;-84
2022/07/22 10:56:08;;;;;;;8.38;6.45;;;25.70;99.90;;;;;;5070311;28;20049;-82
2022/07/22 10:58:35;;;;;;;9.73;5.63;;;25.90;99.90;;;;;;5063126;28;20053;-83
2022/07/22 11:01:13;;;;;;;8.68;5.68;;;25.90;99.90;;;;;;5049240;28;20454;-80
2022/07/22 11:03:43;;;;;;;9.43;6.38;;;26.00;99.90;;;;;;5050067;28;20076;-79
2022/07/22 11:06:27;;;;;;;8.82;5.85;;;26.00;99.90;;;;;;5053246;28;20720;-79
2022/07/22 11:09:07;;;;;;;9.68;5.60;;;26.10;99.90;;;;;;5048322;28;20077;-80
2022/07/22 11:12:02;;;;;;;10.02;6.45;;;26.20;99.90;;;;;;5049317;28;20132;-80
2022/07/22 11:14:33;;;;;;;7.88;5.80;;;26.20;99.90;;;;;;5054192;28;20106;-80
2022/07/22 11:17:04;;;;;;;8.85;6.00;;;26.30;99.90;;;;;;5052978;28;20049;-80
2022/07/22 11:19:32;;;;;;;13.15;6.45;;;26.40;99.90;;;;;;5058992;28;20061;-79
2022/07/22 11:22:04;;;;;;;8.63;6.57;;;26.30;99.90;;;;;;5053854;28;20072;-80
2022/07/22 11:24:33;;;;;;;8.95;6.07;;;26.30;99.90;;;;;;5052191;28;20041;-81
2022/07/22 11:27:00;;;;;;;8.85;6.15;;;26.30;99.90;;;;;;5055639;28;20072;-81
2022/07/22 11:29:40;;;;;;;8.43;6.10;;;26.30;99.90;;;;;;5051924;28;20041;-81
2022/07/22 11:32:09;;;;;;;11.70;6.10;;;26.40;99.90;;;;;;5055956;28;20045;-80
2022/07/22 11:34:47;;;;;;;8.20;6.57;;;26.40;99.90;;;;;;5052670;28;20046;-80
2022/07/22 11:37:15;;;;;;;9.55;6.03;;;26.40;99.90;;;;;;5055625;28;20438;-80
2022/07/22 11:39:42;;;;;;;6.30;5.72;;;26.40;99.90;;;;;;5053906;28;20080;-79
2022/07/22 11:42:09;;;;;;;9.70;6.00;;;26.50;99.90;;;;;;5056276;28;20112;-79
2022/07/22 11:44:38;;;;;;;8.35;5.60;;;26.50;99.90;;;;;;5053868;28;20136;-81
2022/07/22 11:47:06;;;;;;;6.78;5.97;;;26.60;99.90;;;;;;5057455;28;20091;-79
2022/07/22 11:49:36;;;;;;;6.07;5.40;;;26.70;99.90;;;;;;5053578;28;20061;-79
2022/07/22 11:52:11;;;;;;;6.32;5.72;;;26.70;99.90;;;;;;5054394;28;20057;-80
2022/07/22 11:54:40;;;;;;;7.90;5.85;;;26.80;99.90;;;;;;5059856;28;20525;-81
2022/07/22 11:57:07;;;;;;;8.00;5.72;;;26.90;99.90;;;;;;5059512;28;20044;-82
2022/07/22 11:59:35;;;;;;;9.38;5.72;;;27.20;99.90;;;;;;5057363;28;20091;-82
2022/07/22 12:02:04;;;;;;;7.32;6.20;;;27.10;99.90;;;;;;5054675;28;20116;-81
2022/07/22 12:04:32;;;;;;;7.53;5.38;;;27.10;99.90;;;;;;5059988;28;20079;-81
2022/07/22 12:07:02;;;;;;;6.55;5.28;;;27.10;99.90;;;;;;5063597;28;20055;-82
2022/07/22 12:09:34;;;;;;;7.60;6.00;;;27.10;99.90;;;;;;5056040;28;20045;-81
2022/07/22 12:12:01;;;;;;;8.02;5.63;;;27.10;99.90;;;;;;5056318;28;20068;-81
2022/07/22 12:14:31;;;;;;;7.70;5.68;;;27.10;99.90;;;;;;5058921;28;20053;-80
2022/07/22 12:17:02;;;;;;;7.28;5.43;;;27.20;99.90;;;;;;5055520;28;20418;-81
2022/07/22 12:19:33;;;;;;;7.13;5.75;;;27.30;99.90;;;;;;5049779;28;20049;-82
2022/07/22 12:22:32;;;;;;;7.40;5.57;;;27.50;99.90;;;;;;5059518;28;20037;-81
2022/07/22 12:25:01;;;;;;;7.40;5.82;;;27.50;99.90;;;;;;5058263;28;20063;-82
2022/07/22 12:27:29;;;;;;;7.93;5.82;;;27.50;99.90;;;;;;5062358;28;20045;-82
2022/07/22 12:29:55;;;;;;;7.78;5.93;;;27.60;99.90;;;;;;5058863;28;20087;-85
2022/07/22 12:32:22;;;;;;;8.50;5.43;;;27.70;99.90;;;;;;5061287;28;20503;-81
2022/07/22 12:34:57;;;;;;;6.80;5.13;;;27.60;99.90;;;;;;5065735;28;20041;-82
2022/07/22 12:37:26;;;;;;;8.63;5.43;;;27.60;99.90;;;;;;5061012;28;20128;-81
2022/07/22 12:40:11;;;;;;;9.85;4.95;;;27.70;99.90;;;;;;5057278;28;20084;-81
2022/07/22 12:42:41;;;;;;;6.75;5.30;;;27.70;99.90;;;;;;5060742;28;20056;-82
2022/07/22 12:45:16;;;;;;;7.93;5.57;;;27.70;99.90;;;;;;5060651;28;20052;-83
2022/07/22 12:47:52;;;;;;;6.68;5.50;;;27.70;99.90;;;;;;5057382;28;20084;-81
2022/07/22 12:50:34;;;;;;;6.05;5.45;;;27.90;99.90;;;;;;5062186;28;20066;-81
2022/07/22 12:53:04;;;;;;;6.32;5.40;;;28.00;99.90;;;;;;5062699;28;20490;-81